CDU weather

Camden Airport
New South Wales, Australia

Public forecast

Using degrees Celsius for public forecast. Weather courtesy of forecast.io.

METAR (pilot weather report)

Closest report is Sydney Kingsford Smith International Airport, 25.0 nm (46.4 km) ENE. Retrieved 2018/09/21 13:30 UTC (27 minutes ago):

YSSY 211330Z 00000KT CAVOK 14/09 Q1027 NOSIG

TAF (pilot weather forecast)

Closest forecast is Sydney Kingsford Smith International Airport, 25.0 nm (46.4 km) ENE. Retrieved 2018/09/21 12:00 UTC (2 hours ago):

TAF YSSY 211109Z 2112/2218 28008KT CAVOK FM220000 04014KT CAVOK FM221000 33008KT CAVOK FM221400 20012KT 9999 SCT020